sensor_id;sensor_type;location;lat;lon;timestamp;temperature;humidity
17815;DHT22;9031;50.974;11.330;2024-03-25T00:01:59;5.70;99.90
17815;DHT22;9031;50.974;11.330;2024-03-25T00:04:24;5.70;99.90
17815;DHT22;9031;50.974;11.330;2024-03-25T00:06:50;5.70;99.90
17815;DHT22;9031;50.974;11.330;2024-03-25T00:09:16;5.80;99.90
17815;DHT22;9031;50.974;11.330;2024-03-25T00:11:42;5.80;99.90
17815;DHT22;9031;50.974;11.330;2024-03-25T00:14:08;5.80;99.90
17815;DHT22;9031;50.974;11.330;2024-03-25T00:16:34;5.80;99.90
17815;DHT22;9031;50.974;11.330;2024-03-25T00:19:00;5.70;99.90
17815;DHT22;9031;50.974;11.330;2024-03-25T00:21:25;5.80;99.90
17815;DHT22;9031;50.974;11.330;2024-03-25T00:23:51;5.80;99.90
17815;DHT22;9031;50.974;11.330;2024-03-25T00:26:16;5.80;99.90
17815;DHT22;9031;50.974;11.330;2024-03-25T00:28:42;5.80;99.90
17815;DHT22;9031;50.974;11.330;2024-03-25T00:31:09;5.80;99.90
17815;DHT22;9031;50.974;11.330;2024-03-25T00:33:34;5.70;99.90
17815;DHT22;9031;50.974;11.330;2024-03-25T00:35:59;5.70;99.90
17815;DHT22;9031;50.974;11.330;2024-03-25T00:38:25;5.70;99.90
17815;DHT22;9031;50.974;11.330;2024-03-25T00:40:50;5.70;99.90
17815;DHT22;9031;50.974;11.330;2024-03-25T00:43:16;5.70;99.90
17815;DHT22;9031;50.974;11.330;2024-03-25T00:45:42;5.70;99.90
17815;DHT22;9031;50.974;11.330;2024-03-25T00:48:08;5.70;99.90
17815;DHT22;9031;50.974;11.330;2024-03-25T00:50:33;5.70;99.90
17815;DHT22;9031;50.974;11.330;2024-03-25T00:52:59;5.70;99.90
17815;DHT22;9031;50.974;11.330;2024-03-25T00:55:24;5.60;99.90
17815;DHT22;9031;50.974;11.330;2024-03-25T00:57:50;5.60;99.90
17815;DHT22;9031;50.974;11.330;2024-03-25T01:00:16;5.60;99.90
17815;DHT22;9031;50.974;11.330;2024-03-25T01:02:42;5.60;99.90
17815;DHT22;9031;50.974;11.330;2024-03-25T01:05:08;5.50;99.90
17815;DHT22;9031;50.974;11.330;2024-03-25T01:07:34;5.50;99.90
17815;DHT22;9031;50.974;11.330;2024-03-25T01:10:00;5.50;99.90
17815;DHT22;9031;50.974;11.330;2024-03-25T01:12:25;5.60;99.90
17815;DHT22;9031;50.974;11.330;2024-03-25T01:14:52;5.60;99.90
17815;DHT22;9031;50.974;11.330;2024-03-25T01:17:17;5.60;99.90
17815;DHT22;9031;50.974;11.330;2024-03-25T01:19:43;5.60;99.90
17815;DHT22;9031;50.974;11.330;2024-03-25T01:22:08;5.70;99.90
17815;DHT22;9031;50.974;11.330;2024-03-25T01:24:34;5.70;99.90
17815;DHT22;9031;50.974;11.330;2024-03-25T01:27:00;5.70;99.90
17815;DHT22;9031;50.974;11.330;2024-03-25T01:29:25;5.70;99.90
17815;DHT22;9031;50.974;11.330;2024-03-25T01:31:51;5.70;99.90
17815;DHT22;9031;50.974;11.330;2024-03-25T01:34:16;5.80;99.90
17815;DHT22;9031;50.974;11.330;2024-03-25T01:36:42;5.70;99.90
17815;DHT22;9031;50.974;11.330;2024-03-25T01:39:08;5.70;99.90
17815;DHT22;9031;50.974;11.330;2024-03-25T01:41:34;5.80;99.90
17815;DHT22;9031;50.974;11.330;2024-03-25T01:44:00;5.70;99.90
17815;DHT22;9031;50.974;11.330;2024-03-25T01:46:27;5.80;99.90
17815;DHT22;9031;50.974;11.330;2024-03-25T01:48:54;5.80;99.90
17815;DHT22;9031;50.974;11.330;2024-03-25T01:51:21;5.80;99.90
17815;DHT22;9031;50.974;11.330;2024-03-25T01:53:47;5.80;99.90
17815;DHT22;9031;50.974;11.330;2024-03-25T01:56:14;5.80;99.90
17815;DHT22;9031;50.974;11.330;2024-03-25T01:58:40;5.90;99.90
17815;DHT22;9031;50.974;11.330;2024-03-25T02:01:06;5.80;99.90
17815;DHT22;9031;50.974;11.330;2024-03-25T02:03:33;5.90;99.90
17815;DHT22;9031;50.974;11.330;2024-03-25T02:06:02;5.90;99.90
17815;DHT22;9031;50.974;11.330;2024-03-25T02:08:28;5.80;99.90
17815;DHT22;9031;50.974;11.330;2024-03-25T02:10:55;5.80;99.90
17815;DHT22;9031;50.974;11.330;2024-03-25T02:13:21;5.80;99.90
17815;DHT22;9031;50.974;11.330;2024-03-25T02:15:47;5.80;99.90
17815;DHT22;9031;50.974;11.330;2024-03-25T02:18:19;5.80;99.90
17815;DHT22;9031;50.974;11.330;2024-03-25T02:20:45;5.80;99.90
17815;DHT22;9031;50.974;11.330;2024-03-25T02:23:11;5.70;99.90
17815;DHT22;9031;50.974;11.330;2024-03-25T02:25:38;5.70;99.90
17815;DHT22;9031;50.974;11.330;2024-03-25T02:28:04;5.70;99.90
17815;DHT22;9031;50.974;11.330;2024-03-25T02:30:29;5.80;99.90
17815;DHT22;9031;50.974;11.330;2024-03-25T02:32:55;5.80;99.90
17815;DHT22;9031;50.974;11.330;2024-03-25T02:35:21;5.70;99.90
17815;DHT22;9031;50.974;11.330;2024-03-25T02:37:47;5.70;99.90
17815;DHT22;9031;50.974;11.330;2024-03-25T02:40:15;5.70;99.90
17815;DHT22;9031;50.974;11.330;2024-03-25T02:42:41;5.80;99.90
17815;DHT22;9031;50.974;11.330;2024-03-25T02:45:07;5.80;99.90
17815;DHT22;9031;50.974;11.330;2024-03-25T02:47:33;5.80;99.90
17815;DHT22;9031;50.974;11.330;2024-03-25T02:49:58;5.80;99.90
17815;DHT22;9031;50.974;11.330;2024-03-25T02:52:24;5.80;99.90
17815;DHT22;9031;50.974;11.330;2024-03-25T02:54:49;5.80;99.90
17815;DHT22;9031;50.974;11.330;2024-03-25T02:57:15;5.70;99.90
17815;DHT22;9031;50.974;11.330;2024-03-25T02:59:40;5.70;99.90
17815;DHT22;9031;50.974;11.330;2024-03-25T03:02:06;5.70;99.90
17815;DHT22;9031;50.974;11.330;2024-03-25T03:04:31;5.70;99.90
17815;DHT22;9031;50.974;11.330;2024-03-25T03:06:57;5.70;99.90
17815;DHT22;9031;50.974;11.330;2024-03-25T03:09:23;5.60;99.90
17815;DHT22;9031;50.974;11.330;2024-03-25T03:11:48;5.50;99.90
17815;DHT22;9031;50.974;11.330;2024-03-25T03:14:14;5.50;99.90
17815;DHT22;9031;50.974;11.330;2024-03-25T03:16:39;5.50;99.90
17815;DHT22;9031;50.974;11.330;2024-03-25T03:19:05;5.50;99.90
17815;DHT22;9031;50.974;11.330;2024-03-25T03:21:30;5.50;99.90
17815;DHT22;9031;50.974;11.330;2024-03-25T03:23:56;5.50;99.90
17815;DHT22;9031;50.974;11.330;2024-03-25T03:26:22;5.40;99.90
17815;DHT22;9031;50.974;11.330;2024-03-25T03:28:53;5.50;99.90
17815;DHT22;9031;50.974;11.330;2024-03-25T03:31:18;5.40;99.90
17815;DHT22;9031;50.974;11.330;2024-03-25T03:33:44;5.50;99.90
17815;DHT22;9031;50.974;11.330;2024-03-25T03:36:09;5.30;99.90
17815;DHT22;9031;50.974;11.330;2024-03-25T03:38:34;5.30;99.90
17815;DHT22;9031;50.974;11.330;2024-03-25T03:41:02;5.40;99.90
17815;DHT22;9031;50.974;11.330;2024-03-25T03:43:28;5.40;99.90
17815;DHT22;9031;50.974;11.330;2024-03-25T03:45:53;5.40;99.90
17815;DHT22;9031;50.974;11.330;2024-03-25T03:48:19;5.40;99.90
17815;DHT22;9031;50.974;11.330;2024-03-25T03:50:45;5.40;99.90
17815;DHT22;9031;50.974;11.330;2024-03-25T03:53:10;5.50;99.90
17815;DHT22;9031;50.974;11.330;2024-03-25T03:55:36;5.50;99.90
17815;DHT22;9031;50.974;11.330;2024-03-25T03:58:02;5.40;99.90
17815;DHT22;9031;50.974;11.330;2024-03-25T04:00:27;5.30;99.90
17815;DHT22;9031;50.974;11.330;2024-03-25T04:02:53;5.40;99.90
17815;DHT22;9031;50.974;11.330;2024-03-25T04:05:18;5.40;99.90
17815;DHT22;9031;50.974;11.330;2024-03-25T04:07:44;5.40;99.90
17815;DHT22;9031;50.974;11.330;2024-03-25T04:10:10;5.40;99.90
17815;DHT22;9031;50.974;11.330;2024-03-25T04:12:36;5.30;99.90
17815;DHT22;9031;50.974;11.330;2024-03-25T04:15:05;5.30;99.90
17815;DHT22;9031;50.974;11.330;2024-03-25T04:17:31;5.40;99.90
17815;DHT22;9031;50.974;11.330;2024-03-25T04:19:59;5.40;99.90
17815;DHT22;9031;50.974;11.330;2024-03-25T04:22:26;5.40;99.90
17815;DHT22;9031;50.974;11.330;2024-03-25T04:24:51;5.30;99.90
17815;DHT22;9031;50.974;11.330;2024-03-25T04:27:16;5.40;99.90
17815;DHT22;9031;50.974;11.330;2024-03-25T04:29:45;5.40;99.90
17815;DHT22;9031;50.974;11.330;2024-03-25T04:32:11;5.30;99.90
17815;DHT22;9031;50.974;11.330;2024-03-25T04:34:37;5.30;99.90
17815;DHT22;9031;50.974;11.330;2024-03-25T04:37:02;5.30;99.90
17815;DHT22;9031;50.974;11.330;2024-03-25T04:39:30;5.30;99.90
17815;DHT22;9031;50.974;11.330;2024-03-25T04:41:55;5.30;99.90
17815;DHT22;9031;50.974;11.330;2024-03-25T04:44:21;5.30;99.90
17815;DHT22;9031;50.974;11.330;2024-03-25T04:46:47;5.20;99.90
17815;DHT22;9031;50.974;11.330;2024-03-25T04:49:13;5.20;99.90
17815;DHT22;9031;50.974;11.330;2024-03-25T04:51:38;5.20;99.90
17815;DHT22;9031;50.974;11.330;2024-03-25T04:54:04;5.20;99.90
17815;DHT22;9031;50.974;11.330;2024-03-25T04:56:29;5.20;99.90
17815;DHT22;9031;50.974;11.330;2024-03-25T04:58:56;5.30;99.90
17815;DHT22;9031;50.974;11.330;2024-03-25T05:01:26;5.30;99.90
17815;DHT22;9031;50.974;11.330;2024-03-25T05:03:52;5.30;99.90
17815;DHT22;9031;50.974;11.330;2024-03-25T05:06:17;5.30;99.90
17815;DHT22;9031;50.974;11.330;2024-03-25T05:08:43;5.30;99.90
17815;DHT22;9031;50.974;11.330;2024-03-25T05:11:08;5.40;99.90
17815;DHT22;9031;50.974;11.330;2024-03-25T05:13:34;5.40;99.90
17815;DHT22;9031;50.974;11.330;2024-03-25T05:15:59;5.40;99.90
17815;DHT22;9031;50.974;11.330;2024-03-25T05:18:24;5.50;99.90
17815;DHT22;9031;50.974;11.330;2024-03-25T05:20:50;5.50;99.90
17815;DHT22;9031;50.974;11.330;2024-03-25T05:23:15;5.50;99.90
17815;DHT22;9031;50.974;11.330;2024-03-25T05:25:41;5.50;99.90
17815;DHT22;9031;50.974;11.330;2024-03-25T05:28:06;5.60;99.90
17815;DHT22;9031;50.974;11.330;2024-03-25T05:30:33;5.50;99.90
17815;DHT22;9031;50.974;11.330;2024-03-25T05:32:58;5.50;99.90
17815;DHT22;9031;50.974;11.330;2024-03-25T05:35:23;5.60;99.90
17815;DHT22;9031;50.974;11.330;2024-03-25T05:37:49;5.50;99.90
17815;DHT22;9031;50.974;11.330;2024-03-25T05:40:15;5.50;99.90
17815;DHT22;9031;50.974;11.330;2024-03-25T05:42:44;5.50;99.90
17815;DHT22;9031;50.974;11.330;2024-03-25T05:45:09;5.50;99.90
17815;DHT22;9031;50.974;11.330;2024-03-25T05:47:35;5.40;99.90
17815;DHT22;9031;50.974;11.330;2024-03-25T05:50:01;5.50;99.90
17815;DHT22;9031;50.974;11.330;2024-03-25T05:52:31;5.50;99.90
17815;DHT22;9031;50.974;11.330;2024-03-25T05:54:57;5.40;99.90
17815;DHT22;9031;50.974;11.330;2024-03-25T05:57:23;5.40;99.90
17815;DHT22;9031;50.974;11.330;2024-03-25T05:59:48;5.50;99.90
17815;DHT22;9031;50.974;11.330;2024-03-25T06:02:14;5.50;99.90
17815;DHT22;9031;50.974;11.330;2024-03-25T06:04:39;5.50;99.90
17815;DHT22;9031;50.974;11.330;2024-03-25T06:07:05;5.50;99.90
17815;DHT22;9031;50.974;11.330;2024-03-25T06:09:30;5.50;99.90
17815;DHT22;9031;50.974;11.330;2024-03-25T06:11:55;5.50;99.90
17815;DHT22;9031;50.974;11.330;2024-03-25T06:14:21;5.50;99.90
17815;DHT22;9031;50.974;11.330;2024-03-25T06:16:47;5.60;99.90
17815;DHT22;9031;50.974;11.330;2024-03-25T06:19:12;5.50;99.90
17815;DHT22;9031;50.974;11.330;2024-03-25T06:21:38;5.50;99.90
17815;DHT22;9031;50.974;11.330;2024-03-25T06:24:03;5.60;99.90
17815;DHT22;9031;50.974;11.330;2024-03-25T06:26:29;5.60;99.90
17815;DHT22;9031;50.974;11.330;2024-03-25T06:28:54;5.60;99.90
17815;DHT22;9031;50.974;11.330;2024-03-25T06:31:20;5.70;99.90
17815;DHT22;9031;50.974;11.330;2024-03-25T06:34:04;5.70;99.90
17815;DHT22;9031;50.974;11.330;2024-03-25T06:36:47;5.70;99.90
17815;DHT22;9031;50.974;11.330;2024-03-25T06:39:16;5.70;99.90
17815;DHT22;9031;50.974;11.330;2024-03-25T06:41:41;5.70;99.90
17815;DHT22;9031;50.974;11.330;2024-03-25T06:44:07;5.70;99.90
17815;DHT22;9031;50.974;11.330;2024-03-25T06:46:32;5.80;99.90
17815;DHT22;9031;50.974;11.330;2024-03-25T06:48:58;5.80;99.90
17815;DHT22;9031;50.974;11.330;2024-03-25T06:51:24;5.90;99.90
17815;DHT22;9031;50.974;11.330;2024-03-25T06:53:49;6.00;99.90
17815;DHT22;9031;50.974;11.330;2024-03-25T06:56:15;6.10;99.90
17815;DHT22;9031;50.974;11.330;2024-03-25T06:58:40;6.10;99.90
17815;DHT22;9031;50.974;11.330;2024-03-25T07:01:08;6.20;99.90
17815;DHT22;9031;50.974;11.330;2024-03-25T07:03:34;6.20;99.90
17815;DHT22;9031;50.974;11.330;2024-03-25T07:05:59;6.30;99.90
17815;DHT22;9031;50.974;11.330;2024-03-25T07:08:26;6.30;99.90
17815;DHT22;9031;50.974;11.330;2024-03-25T07:10:52;6.30;99.90
17815;DHT22;9031;50.974;11.330;2024-03-25T07:13:18;6.30;99.90
17815;DHT22;9031;50.974;11.330;2024-03-25T07:15:44;6.40;99.90
17815;DHT22;9031;50.974;11.330;2024-03-25T07:18:10;6.30;99.90
17815;DHT22;9031;50.974;11.330;2024-03-25T07:20:39;6.40;99.90
17815;DHT22;9031;50.974;11.330;2024-03-25T07:23:05;6.50;99.90
17815;DHT22;9031;50.974;11.330;2024-03-25T07:25:30;6.50;99.90
17815;DHT22;9031;50.974;11.330;2024-03-25T07:27:56;6.50;99.90
17815;DHT22;9031;50.974;11.330;2024-03-25T07:30:22;6.50;99.90
17815;DHT22;9031;50.974;11.330;2024-03-25T07:32:50;6.50;99.90
17815;DHT22;9031;50.974;11.330;2024-03-25T07:35:16;6.70;99.90
17815;DHT22;9031;50.974;11.330;2024-03-25T07:37:43;7.00;99.90
17815;DHT22;9031;50.974;11.330;2024-03-25T07:40:09;7.10;99.90
17815;DHT22;9031;50.974;11.330;2024-03-25T07:42:35;7.10;99.90
17815;DHT22;9031;50.974;11.330;2024-03-25T07:45:01;7.00;99.90
17815;DHT22;9031;50.974;11.330;2024-03-25T07:47:26;7.00;99.90
17815;DHT22;9031;50.974;11.330;2024-03-25T07:49:52;7.10;99.90
17815;DHT22;9031;50.974;11.330;2024-03-25T07:52:17;7.40;99.90
17815;DHT22;9031;50.974;11.330;2024-03-25T07:54:43;7.90;99.90
17815;DHT22;9031;50.974;11.330;2024-03-25T07:57:09;8.40;99.90
17815;DHT22;9031;50.974;11.330;2024-03-25T07:59:35;8.90;99.90
17815;DHT22;9031;50.974;11.330;2024-03-25T08:02:00;9.00;99.90
17815;DHT22;9031;50.974;11.330;2024-03-25T08:04:26;8.30;99.90
17815;DHT22;9031;50.974;11.330;2024-03-25T08:06:51;7.90;99.90
17815;DHT22;9031;50.974;11.330;2024-03-25T08:09:17;7.50;99.90
17815;DHT22;9031;50.974;11.330;2024-03-25T08:11:43;7.40;99.90
17815;DHT22;9031;50.974;11.330;2024-03-25T08:14:11;7.50;99.90
17815;DHT22;9031;50.974;11.330;2024-03-25T08:16:36;7.30;99.90
17815;DHT22;9031;50.974;11.330;2024-03-25T08:19:03;7.30;99.90
17815;DHT22;9031;50.974;11.330;2024-03-25T08:21:28;7.40;99.90
17815;DHT22;9031;50.974;11.330;2024-03-25T08:23:53;7.40;99.90
17815;DHT22;9031;50.974;11.330;2024-03-25T08:26:19;7.50;99.90
17815;DHT22;9031;50.974;11.330;2024-03-25T08:28:44;7.40;99.90
17815;DHT22;9031;50.974;11.330;2024-03-25T08:31:10;7.50;99.90
17815;DHT22;9031;50.974;11.330;2024-03-25T08:33:36;7.40;99.90
17815;DHT22;9031;50.974;11.330;2024-03-25T08:36:01;7.30;99.90
17815;DHT22;9031;50.974;11.330;2024-03-25T08:38:27;7.50;99.90
17815;DHT22;9031;50.974;11.330;2024-03-25T08:40:52;7.80;99.90
17815;DHT22;9031;50.974;11.330;2024-03-25T08:43:18;7.70;99.90
17815;DHT22;9031;50.974;11.330;2024-03-25T08:45:44;7.60;99.90
17815;DHT22;9031;50.974;11.330;2024-03-25T08:48:10;7.70;99.90
17815;DHT22;9031;50.974;11.330;2024-03-25T08:50:35;7.60;99.90
17815;DHT22;9031;50.974;11.330;2024-03-25T08:53:00;7.60;99.90
17815;DHT22;9031;50.974;11.330;2024-03-25T08:55:27;7.60;99.90
17815;DHT22;9031;50.974;11.330;2024-03-25T08:57:53;7.40;99.90
17815;DHT22;9031;50.974;11.330;2024-03-25T09:00:18;7.40;99.90
17815;DHT22;9031;50.974;11.330;2024-03-25T09:02:44;7.50;99.90
17815;DHT22;9031;50.974;11.330;2024-03-25T09:05:09;7.20;99.90
17815;DHT22;9031;50.974;11.330;2024-03-25T09:07:35;7.10;99.90
17815;DHT22;9031;50.974;11.330;2024-03-25T09:10:01;7.00;99.90
17815;DHT22;9031;50.974;11.330;2024-03-25T09:12:45;7.00;99.90
17815;DHT22;9031;50.974;11.330;2024-03-25T09:15:10;6.60;99.90
17815;DHT22;9031;50.974;11.330;2024-03-25T09:17:36;6.50;99.90
17815;DHT22;9031;50.974;11.330;2024-03-25T09:20:02;6.50;99.90
17815;DHT22;9031;50.974;11.330;2024-03-25T09:22:30;6.60;99.90
17815;DHT22;9031;50.974;11.330;2024-03-25T09:24:56;6.80;99.90
17815;DHT22;9031;50.974;11.330;2024-03-25T09:27:21;6.90;99.90
17815;DHT22;9031;50.974;11.330;2024-03-25T09:29:46;6.90;99.90
17815;DHT22;9031;50.974;11.330;2024-03-25T09:32:12;7.00;99.90
17815;DHT22;9031;50.974;11.330;2024-03-25T09:34:38;7.30;99.90
17815;DHT22;9031;50.974;11.330;2024-03-25T09:37:03;7.70;99.90
17815;DHT22;9031;50.974;11.330;2024-03-25T09:39:29;8.10;99.90
17815;DHT22;9031;50.974;11.330;2024-03-25T09:41:55;8.20;99.90
17815;DHT22;9031;50.974;11.330;2024-03-25T09:44:22;8.40;99.90
17815;DHT22;9031;50.974;11.330;2024-03-25T09:46:50;8.50;99.90
17815;DHT22;9031;50.974;11.330;2024-03-25T09:49:16;8.90;99.90
17815;DHT22;9031;50.974;11.330;2024-03-25T09:51:42;8.60;99.90
17815;DHT22;9031;50.974;11.330;2024-03-25T09:54:07;8.70;99.90
17815;DHT22;9031;50.974;11.330;2024-03-25T09:56:33;8.70;99.90
17815;DHT22;9031;50.974;11.330;2024-03-25T09:58:59;8.30;99.90
17815;DHT22;9031;50.974;11.330;2024-03-25T10:01:25;8.20;99.90
17815;DHT22;9031;50.974;11.330;2024-03-25T10:03:51;8.40;99.90
17815;DHT22;9031;50.974;11.330;2024-03-25T10:06:16;8.50;99.90
17815;DHT22;9031;50.974;11.330;2024-03-25T10:08:41;8.60;99.90
17815;DHT22;9031;50.974;11.330;2024-03-25T10:11:07;8.70;99.90
17815;DHT22;9031;50.974;11.330;2024-03-25T10:13:32;8.80;99.90
17815;DHT22;9031;50.974;11.330;2024-03-25T10:15:58;8.80;99.90
17815;DHT22;9031;50.974;11.330;2024-03-25T10:18:24;8.60;99.90
17815;DHT22;9031;50.974;11.330;2024-03-25T10:20:53;8.40;99.90
17815;DHT22;9031;50.974;11.330;2024-03-25T10:23:23;8.30;99.90
17815;DHT22;9031;50.974;11.330;2024-03-25T10:25:52;8.20;99.90
17815;DHT22;9031;50.974;11.330;2024-03-25T10:28:17;8.30;99.90
17815;DHT22;9031;50.974;11.330;2024-03-25T10:30:43;8.30;99.90
17815;DHT22;9031;50.974;11.330;2024-03-25T10:33:08;8.60;99.90
17815;DHT22;9031;50.974;11.330;2024-03-25T10:35:35;8.90;99.90
17815;DHT22;9031;50.974;11.330;2024-03-25T10:38:04;9.10;99.90
17815;DHT22;9031;50.974;11.330;2024-03-25T10:40:39;9.10;99.90
17815;DHT22;9031;50.974;11.330;2024-03-25T10:43:09;9.20;99.90
17815;DHT22;9031;50.974;11.330;2024-03-25T10:45:43;9.40;99.90
17815;DHT22;9031;50.974;11.330;2024-03-25T10:48:17;9.30;99.90
17815;DHT22;9031;50.974;11.330;2024-03-25T10:50:44;9.00;99.90
17815;DHT22;9031;50.974;11.330;2024-03-25T10:53:10;8.90;99.90
17815;DHT22;9031;50.974;11.330;2024-03-25T10:55:36;9.10;99.90
17815;DHT22;9031;50.974;11.330;2024-03-25T10:58:04;9.80;99.90
17815;DHT22;9031;50.974;11.330;2024-03-25T11:00:29;10.90;99.90
17815;DHT22;9031;50.974;11.330;2024-03-25T11:02:58;11.00;99.90
17815;DHT22;9031;50.974;11.330;2024-03-25T11:05:24;10.90;99.90
17815;DHT22;9031;50.974;11.330;2024-03-25T11:07:50;10.10;99.90
17815;DHT22;9031;50.974;11.330;2024-03-25T11:10:15;9.50;99.90
17815;DHT22;9031;50.974;11.330;2024-03-25T11:12:42;9.40;99.90
17815;DHT22;9031;50.974;11.330;2024-03-25T11:15:08;9.50;99.90
17815;DHT22;9031;50.974;11.330;2024-03-25T11:17:35;9.50;99.90
17815;DHT22;9031;50.974;11.330;2024-03-25T11:20:08;9.40;99.90
17815;DHT22;9031;50.974;11.330;2024-03-25T11:22:33;9.60;99.90
17815;DHT22;9031;50.974;11.330;2024-03-25T11:25:05;9.70;99.90
17815;DHT22;9031;50.974;11.330;2024-03-25T11:27:36;9.90;99.90
17815;DHT22;9031;50.974;11.330;2024-03-25T11:30:03;9.80;99.90
17815;DHT22;9031;50.974;11.330;2024-03-25T11:32:30;9.70;99.90
17815;DHT22;9031;50.974;11.330;2024-03-25T11:34:55;9.70;99.90
17815;DHT22;9031;50.974;11.330;2024-03-25T11:37:21;9.70;99.90
17815;DHT22;9031;50.974;11.330;2024-03-25T11:39:46;10.50;99.90
17815;DHT22;9031;50.974;11.330;2024-03-25T11:42:13;12.80;99.80
17815;DHT22;9031;50.974;11.330;2024-03-25T11:44:38;13.50;98.10
17815;DHT22;9031;50.974;11.330;2024-03-25T11:47:07;14.70;96.40
17815;DHT22;9031;50.974;11.330;2024-03-25T11:49:32;13.50;97.40
17815;DHT22;9031;50.974;11.330;2024-03-25T11:51:59;12.00;98.70
17815;DHT22;9031;50.974;11.330;2024-03-25T11:54:27;11.20;99.90
17815;DHT22;9031;50.974;11.330;2024-03-25T11:56:53;11.20;99.90
17815;DHT22;9031;50.974;11.330;2024-03-25T11:59:19;11.50;99.90
17815;DHT22;9031;50.974;11.330;2024-03-25T12:01:45;11.60;99.90
17815;DHT22;9031;50.974;11.330;2024-03-25T12:04:17;12.60;99.50
17815;DHT22;9031;50.974;11.330;2024-03-25T12:06:43;13.60;98.20
17815;DHT22;9031;50.974;11.330;2024-03-25T12:09:12;15.20;95.50
17815;DHT22;9031;50.974;11.330;2024-03-25T12:11:57;15.10;94.90
17815;DHT22;9031;50.974;11.330;2024-03-25T12:14:23;13.40;96.20
17815;DHT22;9031;50.974;11.330;2024-03-25T12:16:49;12.50;97.50
17815;DHT22;9031;50.974;11.330;2024-03-25T12:19:16;12.10;97.90
17815;DHT22;9031;50.974;11.330;2024-03-25T12:21:42;12.00;97.90
17815;DHT22;9031;50.974;11.330;2024-03-25T12:24:07;12.50;97.90
17815;DHT22;9031;50.974;11.330;2024-03-25T12:26:34;12.90;96.90
17815;DHT22;9031;50.974;11.330;2024-03-25T12:29:01;12.40;97.30
17815;DHT22;9031;50.974;11.330;2024-03-25T12:31:27;12.00;97.40
17815;DHT22;9031;50.974;11.330;2024-03-25T12:33:53;11.30;99.10
17815;DHT22;9031;50.974;11.330;2024-03-25T12:36:20;11.30;99.50
17815;DHT22;9031;50.974;11.330;2024-03-25T12:38:54;10.90;99.20
17815;DHT22;9031;50.974;11.330;2024-03-25T12:41:22;10.70;99.90
17815;DHT22;9031;50.974;11.330;2024-03-25T12:43:49;10.50;99.90
17815;DHT22;9031;50.974;11.330;2024-03-25T12:46:16;10.40;99.90
17815;DHT22;9031;50.974;11.330;2024-03-25T12:48:41;10.20;99.90
17815;DHT22;9031;50.974;11.330;2024-03-25T12:51:14;9.80;99.90
17815;DHT22;9031;50.974;11.330;2024-03-25T12:53:40;9.70;99.90
17815;DHT22;9031;50.974;11.330;2024-03-25T12:56:06;9.80;99.90
17815;DHT22;9031;50.974;11.330;2024-03-25T12:58:32;9.90;99.90
17815;DHT22;9031;50.974;11.330;2024-03-25T13:00:57;10.00;99.90
17815;DHT22;9031;50.974;11.330;2024-03-25T13:03:23;9.90;99.90
17815;DHT22;9031;50.974;11.330;2024-03-25T13:05:48;9.80;99.90
17815;DHT22;9031;50.974;11.330;2024-03-25T13:08:14;9.80;99.90
17815;DHT22;9031;50.974;11.330;2024-03-25T13:10:39;10.20;99.90
17815;DHT22;9031;50.974;11.330;2024-03-25T13:13:05;10.30;99.90
17815;DHT22;9031;50.974;11.330;2024-03-25T13:15:31;10.50;99.90
17815;DHT22;9031;50.974;11.330;2024-03-25T13:17:57;11.10;99.90
17815;DHT22;9031;50.974;11.330;2024-03-25T13:20:22;12.00;99.90
17815;DHT22;9031;50.974;11.330;2024-03-25T13:22:49;12.10;98.80
17815;DHT22;9031;50.974;11.330;2024-03-25T13:25:14;11.80;98.00
17815;DHT22;9031;50.974;11.330;2024-03-25T13:27:40;11.50;98.40
17815;DHT22;9031;50.974;11.330;2024-03-25T13:30:06;11.70;97.90
17815;DHT22;9031;50.974;11.330;2024-03-25T13:32:32;11.70;98.10
17815;DHT22;9031;50.974;11.330;2024-03-25T13:34:57;12.00;97.90
17815;DHT22;9031;50.974;11.330;2024-03-25T13:37:23;12.80;96.90
17815;DHT22;9031;50.974;11.330;2024-03-25T13:39:49;14.70;95.60
17815;DHT22;9031;50.974;11.330;2024-03-25T13:42:15;17.60;92.50
17815;DHT22;9031;50.974;11.330;2024-03-25T13:44:41;19.30;85.30
17815;DHT22;9031;50.974;11.330;2024-03-25T13:47:07;19.50;82.00
17815;DHT22;9031;50.974;11.330;2024-03-25T13:49:34;20.40;77.50
17815;DHT22;9031;50.974;11.330;2024-03-25T13:51:59;20.90;76.80
17815;DHT22;9031;50.974;11.330;2024-03-25T13:54:26;21.30;75.30
17815;DHT22;9031;50.974;11.330;2024-03-25T13:56:52;20.60;73.40
17815;DHT22;9031;50.974;11.330;2024-03-25T13:59:17;20.50;76.80
17815;DHT22;9031;50.974;11.330;2024-03-25T14:01:43;19.80;81.10
17815;DHT22;9031;50.974;11.330;2024-03-25T14:04:08;19.50;81.40
17815;DHT22;9031;50.974;11.330;2024-03-25T14:06:34;19.40;81.40
17815;DHT22;9031;50.974;11.330;2024-03-25T14:09:01;20.40;80.40
17815;DHT22;9031;50.974;11.330;2024-03-25T14:11:30;20.80;78.60
17815;DHT22;9031;50.974;11.330;2024-03-25T14:13:55;19.80;78.40
17815;DHT22;9031;50.974;11.330;2024-03-25T14:16:21;18.20;81.30
17815;DHT22;9031;50.974;11.330;2024-03-25T14:18:46;15.70;85.20
17815;DHT22;9031;50.974;11.330;2024-03-25T14:21:12;16.40;87.50
17815;DHT22;9031;50.974;11.330;2024-03-25T14:23:37;16.20;85.80
17815;DHT22;9031;50.974;11.330;2024-03-25T14:26:03;14.10;90.70
17815;DHT22;9031;50.974;11.330;2024-03-25T14:28:28;13.40;91.00
17815;DHT22;9031;50.974;11.330;2024-03-25T14:30:54;13.20;91.10
17815;DHT22;9031;50.974;11.330;2024-03-25T14:33:19;14.60;91.20
17815;DHT22;9031;50.974;11.330;2024-03-25T14:35:45;17.70;85.20
17815;DHT22;9031;50.974;11.330;2024-03-25T14:38:10;19.00;79.70
17815;DHT22;9031;50.974;11.330;2024-03-25T14:40:39;17.60;82.60
17815;DHT22;9031;50.974;11.330;2024-03-25T14:43:05;16.10;85.60
17815;DHT22;9031;50.974;11.330;2024-03-25T14:45:30;14.40;88.40
17815;DHT22;9031;50.974;11.330;2024-03-25T14:47:56;13.60;90.30
17815;DHT22;9031;50.974;11.330;2024-03-25T14:50:21;13.20;91.30
17815;DHT22;9031;50.974;11.330;2024-03-25T14:52:47;13.00;91.10
17815;DHT22;9031;50.974;11.330;2024-03-25T14:55:12;13.50;91.00
17815;DHT22;9031;50.974;11.330;2024-03-25T14:57:38;15.20;89.10
17815;DHT22;9031;50.974;11.330;2024-03-25T15:00:04;16.50;85.30
17815;DHT22;9031;50.974;11.330;2024-03-25T15:02:30;16.30;84.70
17815;DHT22;9031;50.974;11.330;2024-03-25T15:04:56;15.90;86.80
17815;DHT22;9031;50.974;11.330;2024-03-25T15:07:21;16.60;85.10
17815;DHT22;9031;50.974;11.330;2024-03-25T15:09:47;16.30;83.50
17815;DHT22;9031;50.974;11.330;2024-03-25T15:12:12;15.00;86.60
17815;DHT22;9031;50.974;11.330;2024-03-25T15:14:38;14.00;88.60
17815;DHT22;9031;50.974;11.330;2024-03-25T15:17:03;12.80;90.80
17815;DHT22;9031;50.974;11.330;2024-03-25T15:19:29;12.20;91.60
17815;DHT22;9031;50.974;11.330;2024-03-25T15:21:54;12.20;92.00
17815;DHT22;9031;50.974;11.330;2024-03-25T15:24:20;12.10;92.20
17815;DHT22;9031;50.974;11.330;2024-03-25T15:26:47;12.60;92.50
17815;DHT22;9031;50.974;11.330;2024-03-25T15:29:12;12.80;91.00
17815;DHT22;9031;50.974;11.330;2024-03-25T15:31:37;12.80;91.10
17815;DHT22;9031;50.974;11.330;2024-03-25T15:34:03;12.80;91.20
17815;DHT22;9031;50.974;11.330;2024-03-25T15:36:29;13.20;90.80